createdAt,value
2023-04-03T00:00:51.330Z,23.47
2023-04-03T00:02:56.525Z,23.6
2023-04-03T00:05:01.686Z,23.81
2023-04-03T00:07:06.711Z,24.45
2023-04-03T00:09:12.993Z,23.61
2023-04-03T00:11:18.145Z,24.14
2023-04-03T00:13:23.210Z,23.87
2023-04-03T00:15:28.361Z,24.28
2023-04-03T00:17:33.598Z,23.97
2023-04-03T00:19:38.664Z,24.47
2023-04-03T00:21:43.726Z,24.17
2023-04-03T00:23:48.758Z,24.29
2023-04-03T00:25:53.934Z,23.99
2023-04-03T00:27:59.208Z,24.97
2023-04-03T00:30:04.339Z,24.08
2023-04-03T00:32:09.384Z,24.42
2023-04-03T00:34:14.419Z,24.37
2023-04-03T00:36:19.688Z,24.05
2023-04-03T00:38:24.851Z,23.76
2023-04-03T00:40:29.983Z,24.41
2023-04-03T00:42:35.058Z,24.03
2023-04-03T00:44:40.219Z,24.33
2023-04-03T00:46:45.442Z,24.38
2023-04-03T00:48:50.614Z,24.07
2023-04-03T00:50:55.784Z,24.54
2023-04-03T00:53:00.872Z,24.5
2023-04-03T00:55:06.030Z,24.49
2023-04-03T00:57:11.252Z,24.57
2023-04-03T00:59:16.416Z,24.18
2023-04-03T01:01:21.669Z,24.63
2023-04-03T01:03:26.774Z,24.07
2023-04-03T01:05:31.790Z,24.31
2023-04-03T01:07:36.915Z,24.21
2023-04-03T01:09:41.927Z,24.01
2023-04-03T01:11:46.966Z,23.92
2023-04-03T01:13:51.977Z,24.32
2023-04-03T01:15:57.307Z,24.58
2023-04-03T01:18:02.633Z,25.05
2023-04-03T01:20:07.691Z,25.18
2023-04-03T01:22:12.738Z,24.21
2023-04-03T01:24:17.810Z,24.47
2023-04-03T01:26:22.837Z,24.86
2023-04-03T01:28:28.158Z,24.82
2023-04-03T01:30:33.362Z,24.31
2023-04-03T01:32:38.640Z,24.44
2023-04-03T01:34:43.725Z,24.2
2023-04-03T01:36:48.774Z,24.41
2023-04-03T01:38:53.798Z,24.14
2023-04-03T01:40:58.930Z,24.09
2023-04-03T01:43:04.113Z,24.41
2023-04-03T01:45:09.196Z,24.15
2023-04-03T01:47:14.249Z,25.92
2023-04-03T01:49:19.417Z,24.74
2023-04-03T01:51:24.500Z,24.42
2023-04-03T01:53:29.573Z,24.03
2023-04-03T01:55:34.638Z,24.05
2023-04-03T01:57:39.674Z,23.92
2023-04-03T01:59:44.718Z,23.81
2023-04-03T02:01:49.913Z,23.71
2023-04-03T02:03:55.223Z,23.66
2023-04-03T02:06:00.303Z,23.61
2023-04-03T02:08:05.354Z,23.61
2023-04-03T02:10:10.433Z,23.63
2023-04-03T02:12:15.613Z,23.55
2023-04-03T02:14:20.660Z,23.54
2023-04-03T02:16:25.863Z,23.54
2023-04-03T02:18:30.938Z,23.53
2023-04-03T02:20:36.601Z,23.52
2023-04-03T02:22:41.748Z,23.5
2023-04-03T02:24:46.837Z,23.5
2023-04-03T02:26:51.950Z,23.49
2023-04-03T02:28:57.040Z,23.46
2023-04-03T02:32:29.429Z,23.49
2023-04-03T02:34:34.501Z,23.5
2023-04-03T02:36:39.738Z,23.48
2023-04-03T02:38:44.810Z,23.49
2023-04-03T02:40:49.833Z,23.54
2023-04-03T02:42:54.885Z,23.54
2023-04-03T02:45:02.873Z,23.61
2023-04-03T02:47:07.980Z,23.62
2023-04-03T02:49:13.207Z,23.63
2023-04-03T02:51:18.267Z,23.62
2023-04-03T02:53:23.348Z,23.56
2023-04-03T02:55:28.365Z,23.59
2023-04-03T02:57:33.756Z,23.67
2023-04-03T02:59:38.901Z,23.71
2023-04-03T03:01:44.132Z,23.71
2023-04-03T03:03:49.176Z,23.62
2023-04-03T03:05:54.198Z,23.65
2023-04-03T03:07:59.286Z,23.61
2023-04-03T03:10:04.352Z,23.62
2023-04-03T03:12:09.391Z,23.66
2023-04-03T03:14:14.466Z,23.66
2023-04-03T03:16:19.697Z,23.67
2023-04-03T03:18:24.861Z,23.65
2023-04-03T03:20:29.907Z,23.66
2023-04-03T03:22:35.354Z,23.67
2023-04-03T03:24:40.393Z,23.66
2023-04-03T03:26:45.506Z,23.65
2023-04-03T03:28:50.557Z,23.65
2023-04-03T03:30:55.580Z,23.71
2023-04-03T03:33:00.861Z,23.67
2023-04-03T03:35:06.024Z,23.71
2023-04-03T03:37:11.041Z,23.7
2023-04-03T03:39:16.194Z,23.72
2023-04-03T03:41:21.249Z,23.71
2023-04-03T03:43:26.386Z,23.68
2023-04-03T03:45:31.455Z,23.69
2023-04-03T03:47:36.716Z,23.73
2023-04-03T03:49:41.775Z,23.73
2023-04-03T03:51:46.867Z,23.77
2023-04-03T03:53:51.895Z,23.8
2023-04-03T03:55:56.993Z,23.85
2023-04-03T03:58:02.091Z,23.94
2023-04-03T04:00:07.218Z,23.96
2023-04-03T04:02:12.434Z,24.03
2023-04-03T04:04:17.792Z,24.04
2023-04-03T04:06:22.905Z,23.99
2023-04-03T04:08:28.007Z,23.91
2023-04-03T04:10:33.119Z,23.95
2023-04-03T04:12:38.146Z,23.99
2023-04-03T04:14:43.225Z,24.01
2023-04-03T04:16:48.461Z,24.08
2023-04-03T04:18:53.606Z,24.05
2023-04-03T04:20:58.654Z,23.98
2023-04-03T04:23:03.735Z,24.01
2023-04-03T04:25:08.902Z,24.08
2023-04-03T04:27:14.040Z,24.3
2023-04-03T04:29:19.069Z,24.47
2023-04-03T04:31:24.320Z,24.53
2023-04-03T04:33:29.383Z,24.71
2023-04-03T04:35:34.806Z,24.73
2023-04-03T04:37:39.991Z,24.67
2023-04-03T04:39:45.080Z,24.68
2023-04-03T04:41:50.116Z,24.77
2023-04-03T04:43:55.200Z,24.89
2023-04-03T04:46:00.354Z,24.98
2023-04-03T04:48:05.609Z,24.96
2023-04-03T04:50:10.828Z,24.93
2023-04-03T04:52:15.927Z,25
2023-04-03T04:54:21.112Z,25.3
2023-04-03T04:56:26.150Z,25.39
2023-04-03T04:58:31.212Z,27.63
2023-04-03T05:00:36.539Z,27.77
2023-04-03T05:02:41.766Z,28.16
2023-04-03T05:04:47.070Z,28.7
2023-04-03T05:06:52.223Z,29.64
2023-04-03T05:08:57.250Z,29.73
2023-04-03T05:11:02.393Z,29.88
2023-04-03T05:13:07.515Z,29.91
2023-04-03T05:15:12.654Z,30.18
2023-04-03T05:17:17.758Z,30.23
2023-04-03T05:19:22.776Z,29.96
2023-04-03T05:21:27.789Z,30.08
2023-04-03T05:23:32.832Z,29.9
2023-04-03T05:25:38.805Z,29.8
2023-04-03T05:27:44.036Z,29.88
2023-04-03T05:29:49.077Z,29.95
2023-04-03T05:31:54.562Z,29.77
2023-04-03T05:33:59.633Z,29.96
2023-04-03T05:36:04.878Z,30
2023-04-03T05:38:10.339Z,30.29
2023-04-03T05:40:17.477Z,30.6
2023-04-03T05:42:23.688Z,30.8
2023-04-03T05:44:28.710Z,30.95
2023-04-03T05:46:33.810Z,30.93
2023-04-03T05:48:38.847Z,30.76
2023-04-03T05:50:43.927Z,30.76
2023-04-03T05:52:49.150Z,30.67
2023-04-03T05:54:54.711Z,30.72
2023-04-03T05:56:59.876Z,30.66
2023-04-03T05:59:04.958Z,30.66
2023-04-03T06:01:09.975Z,30.75
2023-04-03T06:03:15.796Z,30.96
2023-04-03T06:05:20.930Z,30.8
2023-04-03T06:07:26.068Z,30.85
2023-04-03T06:09:31.363Z,30.88
2023-04-03T06:11:36.428Z,30.81
2023-04-03T06:13:41.510Z,30.71
2023-04-03T06:15:46.549Z,30.75
2023-04-03T06:17:51.833Z,30.76
2023-04-03T06:19:56.916Z,30.8
2023-04-03T06:22:01.994Z,30.82
2023-04-03T06:24:07.045Z,30.8
2023-04-03T06:26:12.248Z,30.77
2023-04-03T06:28:17.283Z,30.8
2023-04-03T06:30:22.349Z,30.8
2023-04-03T06:32:27.459Z,30.87
2023-04-03T06:34:32.626Z,30.83
2023-04-03T06:36:37.802Z,30.83
2023-04-03T06:38:42.938Z,30.9
2023-04-03T06:40:48.006Z,30.87
2023-04-03T06:42:53.058Z,30.88
2023-04-03T06:44:58.088Z,30.84
2023-04-03T06:47:03.282Z,30.9
2023-04-03T06:49:08.318Z,30.96
2023-04-03T06:51:13.440Z,31.04
2023-04-03T06:53:18.527Z,31.07
2023-04-03T06:55:23.704Z,31.1
2023-04-03T06:57:28.938Z,31.04
2023-04-03T06:59:34.057Z,31.08
2023-04-03T07:01:39.292Z,31.07
2023-04-03T07:03:44.445Z,31.13
2023-04-03T07:05:49.474Z,31.12
2023-04-03T07:07:54.512Z,31.23
2023-04-03T07:09:59.594Z,31.35
2023-04-03T07:12:04.666Z,31.39
2023-04-03T07:14:09.946Z,31.54
2023-04-03T07:16:15.216Z,31.36
2023-04-03T07:18:20.583Z,31.33
2023-04-03T07:20:25.671Z,31.35
2023-04-03T07:22:30.738Z,31.41
2023-04-03T07:24:35.826Z,31.4
2023-04-03T07:26:40.910Z,31.45
2023-04-03T07:28:45.972Z,31.67
2023-04-03T07:30:51.027Z,31.46
2023-04-03T07:32:56.404Z,31.43
2023-04-03T07:35:04.029Z,31.52
2023-04-03T07:37:09.252Z,31.45
2023-04-03T07:39:14.328Z,31.45
2023-04-03T07:41:19.414Z,31.48
2023-04-03T07:43:24.512Z,31.58
2023-04-03T07:45:29.802Z,31.57
2023-04-03T07:47:35.089Z,31.62
2023-04-03T07:49:40.222Z,31.66
2023-04-03T07:51:45.375Z,32.06
2023-04-03T07:53:50.418Z,31.88
2023-04-03T07:55:55.581Z,32.21
2023-04-03T07:58:00.734Z,32.51
2023-04-03T08:00:05.934Z,32.32
2023-04-03T08:02:10.983Z,32.2
2023-04-03T08:04:16.725Z,32.05
2023-04-03T08:06:47.332Z,32
2023-04-03T08:08:52.429Z,32.02
2023-04-03T08:10:57.449Z,32.2
2023-04-03T08:13:02.612Z,32.09
2023-04-03T08:15:07.684Z,31.98
2023-04-03T08:17:12.788Z,32.04
2023-04-03T08:19:28.460Z,32.25
2023-04-03T08:21:33.492Z,32.19
2023-04-03T08:23:38.605Z,32.1
2023-04-03T08:25:43.772Z,32.14
2023-04-03T08:27:48.821Z,30.43
2023-04-03T08:29:53.943Z,29.02
2023-04-03T08:31:58.978Z,30.3
2023-04-03T08:34:04.199Z,31.09
2023-04-03T08:36:09.395Z,31.38
2023-04-03T08:38:14.562Z,31.36
2023-04-03T08:40:19.645Z,31.46
2023-04-03T08:42:24.800Z,31.51
2023-04-03T08:44:29.937Z,31.45
2023-04-03T08:46:35.189Z,31.52
2023-04-03T08:48:40.416Z,31.56
2023-04-03T08:50:45.490Z,31.68
2023-04-03T08:52:50.626Z,31.66
2023-04-03T08:54:55.677Z,31.58
2023-04-03T08:57:00.884Z,31.76
2023-04-03T08:59:05.988Z,31.61
2023-04-03T09:01:11.046Z,31.62
2023-04-03T09:03:16.746Z,31.56
2023-04-03T09:05:23.416Z,31.54
2023-04-03T09:07:29.093Z,31.56
2023-04-03T09:09:34.366Z,31.62
2023-04-03T09:11:39.534Z,31.72
2023-04-03T09:13:44.587Z,31.67
2023-04-03T09:15:49.721Z,31.63
2023-04-03T09:17:54.896Z,31.58
2023-04-03T09:20:00.013Z,31.55
2023-04-03T09:22:05.064Z,31.64
2023-04-03T09:24:10.237Z,31.7
2023-04-03T09:26:15.422Z,31.63
2023-04-03T09:28:20.528Z,31.51
2023-04-03T09:30:25.820Z,31.51
2023-04-03T09:32:31.124Z,31.82
2023-04-03T09:34:36.170Z,32.17
2023-04-03T09:36:41.231Z,32.01
2023-04-03T09:38:46.223Z,32.6
2023-04-03T09:40:51.366Z,32.47
2023-04-03T09:43:03.356Z,32.72
2023-04-03T09:45:08.444Z,32.46
2023-04-03T09:47:13.814Z,32.35
2023-04-03T09:49:18.853Z,32.22
2023-04-03T09:51:23.940Z,32.32
2023-04-03T09:53:28.958Z,32.4
2023-04-03T09:55:34.007Z,32.37
2023-04-03T09:57:39.494Z,32.35
2023-04-03T09:59:44.555Z,32.15
2023-04-03T10:01:49.642Z,32.11
2023-04-03T10:03:54.903Z,32.06
2023-04-03T10:05:59.936Z,32
2023-04-03T10:08:06.600Z,32.11
2023-04-03T10:10:11.803Z,31.93
2023-04-03T10:12:16.891Z,31.89
2023-04-03T10:14:21.994Z,32.21
2023-04-03T10:16:27.236Z,32.29
2023-04-03T10:18:32.628Z,32.32
2023-04-03T10:20:38.504Z,32.35
2023-04-03T10:22:43.876Z,32.5
2023-04-03T10:24:48.951Z,32.52
2023-04-03T10:26:53.994Z,32.44
2023-04-03T10:28:59.078Z,32.31
2023-04-03T10:31:04.439Z,32.3
2023-04-03T10:33:09.569Z,32.36
2023-04-03T10:35:14.627Z,32.58
2023-04-03T10:37:19.707Z,32.52
2023-04-03T10:39:24.820Z,32.53
2023-04-03T10:41:29.840Z,32.58
2023-04-03T10:43:34.901Z,32.44
2023-04-03T10:45:40.099Z,32.4
2023-04-03T10:47:45.286Z,32.24
2023-04-03T10:50:01.661Z,32.32
2023-04-03T10:52:06.710Z,32.44
2023-04-03T10:54:11.862Z,32.42
2023-04-03T10:56:16.966Z,32.51
2023-04-03T10:58:22.074Z,32.54
2023-04-03T11:00:27.253Z,32.69
2023-04-03T11:02:34.213Z,32.66
2023-04-03T11:04:39.687Z,32.43
2023-04-03T11:06:44.705Z,32.3
2023-04-03T11:08:49.948Z,32.65
2023-04-03T11:10:54.976Z,32.57
2023-04-03T11:13:00.016Z,32.21
2023-04-03T11:15:05.140Z,32.36
2023-04-03T11:17:10.356Z,32.26
2023-04-03T11:19:15.408Z,32.26
2023-04-03T11:21:20.461Z,32.19
2023-04-03T11:23:28.322Z,32.11
2023-04-03T11:25:35.650Z,32.09
2023-04-03T11:27:40.932Z,32.01
2023-04-03T11:29:45.987Z,31.95
2023-04-03T11:31:51.212Z,31.94
2023-04-03T11:33:56.221Z,31.97
2023-04-03T11:36:02.631Z,31.97
2023-04-03T11:38:09.156Z,31.81
2023-04-03T11:40:14.209Z,31.67
2023-04-03T11:42:19.383Z,31.11
2023-04-03T11:44:24.440Z,31.25
2023-04-03T11:46:29.629Z,31.38
2023-04-03T11:48:34.905Z,31.39
2023-04-03T11:50:40.132Z,31.56
2023-04-03T11:52:46.961Z,31.5
2023-04-03T11:54:52.079Z,31.53
2023-04-03T11:56:57.262Z,31.56
2023-04-03T11:59:02.370Z,31.54
2023-04-03T12:01:07.540Z,31.59
2023-04-03T12:03:13.014Z,31.58
2023-04-03T12:05:18.131Z,31.69
2023-04-03T12:07:23.438Z,31.75
2023-04-03T12:09:28.525Z,31.6
2023-04-03T12:11:33.682Z,31.64
2023-04-03T12:13:38.833Z,31.83
2023-04-03T12:15:43.880Z,31.83
2023-04-03T12:17:49.091Z,31.8
2023-04-03T12:19:54.188Z,31.84
2023-04-03T12:21:59.267Z,32
2023-04-03T12:24:04.456Z,31.79
2023-04-03T12:26:09.568Z,31.76
2023-04-03T12:28:14.591Z,31.59
2023-04-03T12:30:19.787Z,31.54
2023-04-03T12:32:24.906Z,31.48
2023-04-03T12:34:29.977Z,31.74
2023-04-03T12:36:35.071Z,31.8
2023-04-03T12:38:40.174Z,31.75
2023-04-03T12:40:45.398Z,31.9
2023-04-03T12:42:50.432Z,31.9
2023-04-03T12:44:55.546Z,31.82
2023-04-03T12:47:00.757Z,31.82
2023-04-03T12:49:05.822Z,31.87
2023-04-03T12:51:10.877Z,31.75
2023-04-03T12:53:15.938Z,31.82
2023-04-03T12:55:21.135Z,31.83
2023-04-03T12:57:26.441Z,31.72
2023-04-03T12:59:31.508Z,31.62
2023-04-03T13:01:36.749Z,31.64
2023-04-03T13:03:42.253Z,31.84
2023-04-03T13:05:47.311Z,29.44
2023-04-03T13:07:52.410Z,27.62
2023-04-03T13:09:57.599Z,28.11
2023-04-03T13:12:02.697Z,27.26
2023-04-03T13:14:07.778Z,26.37
2023-04-03T13:16:13.045Z,26.14
2023-04-03T13:18:18.187Z,26.08
2023-04-03T13:20:23.364Z,26.25
2023-04-03T13:22:28.616Z,26.3
2023-04-03T13:24:33.692Z,26.48
2023-04-03T13:26:38.856Z,26.62
2023-04-03T13:28:43.940Z,26.98
2023-04-03T13:30:49.034Z,26.39
2023-04-03T13:32:54.275Z,26.42
2023-04-03T13:35:18.703Z,26.14
2023-04-03T13:37:24.011Z,26.03
2023-04-03T13:39:29.106Z,26.11
2023-04-03T13:41:34.204Z,26.36
2023-04-03T13:43:40.407Z,25.77
2023-04-03T13:45:47.106Z,26.09
2023-04-03T13:47:52.385Z,26.3
2023-04-03T13:49:57.442Z,26.45
2023-04-03T13:52:09.974Z,26.78
2023-04-03T13:54:15.001Z,26.3
2023-04-03T13:56:20.143Z,27.2
2023-04-03T13:58:25.161Z,27.88
2023-04-03T14:00:30.252Z,27.27
2023-04-03T14:02:35.534Z,28.12
2023-04-03T14:04:40.822Z,26.29
2023-04-03T14:06:45.922Z,26.32
2023-04-03T14:08:50.993Z,26.1
2023-04-03T14:10:56.142Z,25.74
2023-04-03T14:13:01.243Z,26.85
2023-04-03T14:15:06.385Z,26.03
2023-04-03T14:17:25.941Z,25.16
2023-04-03T14:19:31.115Z,25.48
2023-04-03T14:21:36.263Z,26.02
2023-04-03T14:23:41.399Z,25.52
2023-04-03T14:25:46.541Z,24.74
2023-04-03T14:27:51.585Z,24.52
2023-04-03T14:29:56.550Z,24.22
2023-04-03T14:32:16.512Z,23.88
2023-04-03T14:34:21.508Z,23.92
2023-04-03T14:36:26.818Z,23.93
2023-04-03T14:38:31.875Z,23.93
2023-04-03T14:40:37.460Z,23.78
2023-04-03T14:42:42.728Z,26.67
2023-04-03T14:44:47.785Z,28.33
2023-04-03T14:46:58.793Z,28.36
2023-04-03T14:49:03.921Z,29
2023-04-03T14:51:09.007Z,29.38
2023-04-03T14:53:14.068Z,29.54
2023-04-03T14:55:19.175Z,30.08
2023-04-03T14:57:24.343Z,30.1
2023-04-03T14:59:29.540Z,30.39
2023-04-03T15:01:34.792Z,30.57
2023-04-03T15:03:40.615Z,30.79
2023-04-03T15:05:45.758Z,31.19
2023-04-03T15:07:50.898Z,31.28
2023-04-03T15:09:55.980Z,31.33
2023-04-03T15:12:01.022Z,31.52
2023-04-03T15:14:06.187Z,31.74
2023-04-03T15:16:11.479Z,31.68
2023-04-03T15:18:16.844Z,32.05
2023-04-03T15:20:22.042Z,32.11
2023-04-03T15:22:27.096Z,32.25
2023-04-03T15:24:32.292Z,32.33
2023-04-03T15:26:37.368Z,32.63
2023-04-03T15:28:42.559Z,32.68
2023-04-03T15:30:47.613Z,33.29
2023-04-03T15:32:52.846Z,33.9
2023-04-03T15:34:59.230Z,33.83
2023-04-03T15:37:04.434Z,34.57
2023-04-03T15:39:09.591Z,35.01
2023-04-03T15:41:14.625Z,35.08
2023-04-03T15:43:19.774Z,35.02
2023-04-03T15:45:24.937Z,35.29
2023-04-03T15:47:30.259Z,35.27
2023-04-03T15:49:35.349Z,35.55
2023-04-03T15:51:40.408Z,35.21
2023-04-03T15:53:45.592Z,35.49
2023-04-03T15:55:50.683Z,35.45
2023-04-03T15:57:55.898Z,35.17
2023-04-03T16:00:01.272Z,35.19
2023-04-03T16:02:06.597Z,35.29
2023-04-03T16:04:11.801Z,35.41
2023-04-03T16:06:16.899Z,33.09
2023-04-03T16:08:21.975Z,30.87
2023-04-03T16:10:27.029Z,28.81
2023-04-03T16:12:32.204Z,28.42
2023-04-03T16:14:37.302Z,27.91
2023-04-03T16:16:42.402Z,27.53
2023-04-03T16:18:47.412Z,27.13
2023-04-03T16:20:52.482Z,26.69
2023-04-03T16:22:57.948Z,26.19
2023-04-03T16:25:03.032Z,26.28
2023-04-03T16:27:08.181Z,25.8
2023-04-03T16:29:13.345Z,25.69
2023-04-03T16:31:18.528Z,25.69
2023-04-03T16:33:23.633Z,25.21
2023-04-03T16:35:29.009Z,25.81
2023-04-03T16:37:35.478Z,24.69
2023-04-03T16:39:40.675Z,24.47
2023-04-03T16:41:45.740Z,24.39
2023-04-03T16:43:50.769Z,24.27
2023-04-03T16:45:56.012Z,24.32
2023-04-03T16:48:01.238Z,24.16
2023-04-03T16:50:06.905Z,24.17
2023-04-03T16:52:12.019Z,24.51
2023-04-03T16:54:17.082Z,24.29
2023-04-03T16:56:22.611Z,24.46
2023-04-03T16:58:27.659Z,25.47
2023-04-03T17:00:32.889Z,25.11
2023-04-03T17:02:38.263Z,24.38
2023-04-03T17:04:43.395Z,24.1
2023-04-03T17:06:48.476Z,23.7
2023-04-03T17:08:53.547Z,23.57
2023-04-03T17:10:58.577Z,23.42
2023-04-03T17:13:03.740Z,23.12
2023-04-03T17:15:08.787Z,23.14
2023-04-03T17:17:13.908Z,23.04
2023-04-03T17:19:19.114Z,24.29
2023-04-03T17:21:24.182Z,25.4
2023-04-03T17:23:29.272Z,26.1
2023-04-03T17:25:34.391Z,26.28
2023-04-03T17:27:39.448Z,26.55
2023-04-03T17:29:44.676Z,27.22
2023-04-03T17:31:50.144Z,27.69
2023-04-03T17:33:55.458Z,27.88
2023-04-03T17:36:00.531Z,28
2023-04-03T17:38:05.743Z,28.05
2023-04-03T17:40:10.862Z,28.15
2023-04-03T17:42:15.950Z,28.47
2023-04-03T17:44:21.095Z,28.62
2023-04-03T17:46:26.369Z,28.78
2023-04-03T17:48:31.534Z,29.3
2023-04-03T17:50:36.679Z,29.41
2023-04-03T17:52:41.852Z,29.17
2023-04-03T17:54:47.092Z,29.61
2023-04-03T17:56:52.187Z,29.64
2023-04-03T17:58:57.373Z,27.24
2023-04-03T18:01:02.449Z,25.84
2023-04-03T18:03:07.777Z,26.34
2023-04-03T18:05:13.029Z,25.31
2023-04-03T18:07:18.227Z,24.62
2023-04-03T18:09:23.345Z,24.5
2023-04-03T18:11:28.435Z,25.99
2023-04-03T18:13:33.704Z,24.22
2023-04-03T18:15:39.435Z,24.42
2023-04-03T18:17:44.818Z,24.39
2023-04-03T18:19:49.930Z,24
2023-04-03T18:21:55.046Z,23.39
2023-04-03T18:24:00.167Z,23.6
2023-04-03T18:26:05.192Z,23.74
2023-04-03T18:28:10.270Z,22.57
2023-04-03T18:30:16.470Z,22.01
2023-04-03T18:32:21.562Z,22.95
2023-04-03T18:34:26.807Z,22.81
2023-04-03T18:36:31.883Z,23.68
2023-04-03T18:38:37.114Z,23.58
2023-04-03T18:40:43.014Z,23.93
2023-04-03T18:42:48.181Z,22.94
2023-04-03T18:44:53.339Z,22.77
2023-04-03T18:46:58.476Z,22.65
2023-04-03T18:49:03.746Z,21.95
2023-04-03T18:51:08.839Z,21.98
2023-04-03T18:53:13.980Z,21.92
2023-04-03T18:55:19.199Z,22.85
2023-04-03T18:57:24.271Z,23.06
2023-04-03T18:59:29.504Z,22.88
2023-04-03T19:01:35.163Z,22.81
2023-04-03T19:03:40.740Z,22.38
2023-04-03T19:05:46.430Z,22.36
2023-04-03T19:07:51.519Z,22.18
2023-04-03T19:09:56.569Z,22.15
2023-04-03T19:12:01.635Z,22.47
2023-04-03T19:14:18.631Z,22.09
2023-04-03T19:16:23.711Z,22
2023-04-03T19:18:28.734Z,21.55
2023-04-03T19:20:33.814Z,21.54
2023-04-03T19:22:39.123Z,22.5
2023-04-03T19:24:44.178Z,22.05
2023-04-03T19:26:49.279Z,22.92
2023-04-03T19:28:54.303Z,21.68
2023-04-03T19:30:59.420Z,21.6
2023-04-03T19:33:04.772Z,23.35
2023-04-03T19:35:09.867Z,24
2023-04-03T19:37:15.063Z,24.69
2023-04-03T19:39:20.136Z,25.55
2023-04-03T19:41:25.368Z,25.6
2023-04-03T19:43:30.447Z,25.89
2023-04-03T19:45:35.509Z,26.44
2023-04-03T19:47:40.802Z,26.62
2023-04-03T19:49:45.893Z,26.88
2023-04-03T19:51:50.940Z,27.13
2023-04-03T19:53:56.035Z,27.2
2023-04-03T19:56:01.381Z,27.39
2023-04-03T19:58:06.451Z,27.11
2023-04-03T20:00:11.627Z,27.71
2023-04-03T20:02:16.851Z,27.42
2023-04-03T20:04:22.062Z,28.33
2023-04-03T20:06:27.195Z,28.73
2023-04-03T20:08:32.491Z,28.44
2023-04-03T20:10:38.205Z,28.42
2023-04-03T20:12:43.558Z,28.73
2023-04-03T20:14:48.739Z,28.69
2023-04-03T20:16:53.910Z,28.42
2023-04-03T20:18:59.029Z,28.58
2023-04-03T20:21:04.243Z,27.38
2023-04-03T20:23:09.361Z,28.3
2023-04-03T20:25:39.103Z,28.98
2023-04-03T20:27:50.835Z,28.92
2023-04-03T20:29:56.096Z,28.77
2023-04-03T20:32:01.637Z,28.61
2023-04-03T20:34:06.843Z,28.75
2023-04-03T20:36:11.947Z,28.66
2023-04-03T20:38:17.511Z,28.8
2023-04-03T20:40:22.638Z,28.46
2023-04-03T20:42:27.721Z,28.85
2023-04-03T20:44:32.882Z,28.76
2023-04-03T20:46:55.496Z,25.82
2023-04-03T20:49:00.656Z,25.72
2023-04-03T20:51:06.158Z,25.25
2023-04-03T20:53:11.373Z,24.94
2023-04-03T20:55:16.434Z,24.81
2023-04-03T20:57:21.511Z,24.59
2023-04-03T20:59:26.913Z,24.5
2023-04-03T21:01:32.263Z,24.27
2023-04-03T21:03:37.493Z,24.08
2023-04-03T21:05:42.708Z,24
2023-04-03T21:07:47.829Z,23.84
2023-04-03T21:09:52.992Z,23.74
2023-04-03T21:11:58.072Z,23.66
2023-04-03T21:14:03.159Z,23.57
2023-04-03T21:16:08.507Z,23.46
2023-04-03T21:18:13.700Z,23.32
2023-04-03T21:20:18.827Z,23.16
2023-04-03T21:22:23.904Z,23.07
2023-04-03T21:24:29.506Z,23.13
2023-04-03T21:26:34.689Z,22.99
2023-04-03T21:28:39.811Z,23.19
2023-04-03T21:30:46.175Z,22.95
2023-04-03T21:32:51.389Z,22.73
2023-04-03T21:34:56.445Z,22.86
2023-04-03T21:37:01.881Z,22.91
2023-04-03T21:39:06.961Z,22.7
2023-04-03T21:41:12.059Z,22.84
2023-04-03T21:43:17.090Z,22.59
2023-04-03T21:45:22.136Z,22.81
2023-04-03T21:47:27.301Z,22.35
2023-04-03T21:49:32.417Z,22.67
2023-04-03T21:51:37.514Z,22.36
2023-04-03T21:53:42.701Z,22.33
2023-04-03T21:55:47.805Z,22.23
2023-04-03T21:57:53.015Z,22.49
2023-04-03T21:59:58.525Z,22.41
2023-04-03T22:02:03.900Z,22.35
2023-04-03T22:04:09.239Z,22.23
2023-04-03T22:06:14.409Z,22.1
2023-04-03T22:08:19.601Z,22.02
2023-04-03T22:10:24.740Z,22.06
2023-04-03T22:12:29.824Z,22
2023-04-03T22:14:35.190Z,22.08
2023-04-03T22:16:40.538Z,22.11
2023-04-03T22:18:45.722Z,22.05
2023-04-03T22:20:50.762Z,22.11
2023-04-03T22:22:55.922Z,22.13
2023-04-03T22:25:01.051Z,22.16
2023-04-03T22:27:06.127Z,22.13
2023-04-03T22:29:11.577Z,22.02
2023-04-03T22:31:18.460Z,22.07
2023-04-03T22:33:23.486Z,21.94
2023-04-03T22:35:28.801Z,21.95
2023-04-03T22:37:34.078Z,22.08
2023-04-03T22:39:39.245Z,21.88
2023-04-03T22:41:44.626Z,22.12
2023-04-03T22:43:49.764Z,22.08
2023-04-03T22:45:54.895Z,22.14
2023-04-03T22:48:00.304Z,21.8
2023-04-03T22:50:05.420Z,22.06
2023-04-03T22:52:10.457Z,21.92
2023-04-03T22:54:15.520Z,22.06
2023-04-03T22:56:20.684Z,21.84
2023-04-03T22:58:25.881Z,21.78
2023-04-03T23:00:31.219Z,21.77
2023-04-03T23:02:36.407Z,21.73
2023-04-03T23:04:41.679Z,21.73
2023-04-03T23:06:46.779Z,21.71
2023-04-03T23:08:52.936Z,21.62
2023-04-03T23:10:58.246Z,21.64
2023-04-03T23:13:03.486Z,21.64
2023-04-03T23:15:08.520Z,21.7
2023-04-03T23:17:13.548Z,21.67
2023-04-03T23:19:19.810Z,21.64
2023-04-03T23:21:24.966Z,21.64
2023-04-03T23:23:30.585Z,21.63
2023-04-03T23:25:35.720Z,21.67
2023-04-03T23:27:40.973Z,21.7
2023-04-03T23:29:46.169Z,21.67
2023-04-03T23:31:51.523Z,21.75
2023-04-03T23:33:56.783Z,21.75
2023-04-03T23:36:02.716Z,21.77
2023-04-03T23:38:07.786Z,21.86
2023-04-03T23:40:12.974Z,21.79
2023-04-03T23:42:18.053Z,21.79
2023-04-03T23:44:23.166Z,21.83
2023-04-03T23:46:28.685Z,21.77
2023-04-03T23:48:34.030Z,21.84
2023-04-03T23:50:39.891Z,21.8
2023-04-03T23:52:45.289Z,21.8
2023-04-03T23:54:50.441Z,21.75
2023-04-03T23:56:55.565Z,21.75
2023-04-03T23:59:00.853Z,21.71
